Time;durP1;ratioP1;P1;durP2;ratioP2;P2;SDS_P1;SDS_P2;PMS_P1;PMS_P2;Temp;Humidity;BMP_temperature;BMP_pressure;BME280_temperature;BME280_humidity;BME280_pressure;Samples;Min_cycle;Max_cycle;Signal;HPM_P1;HPM_P2
2022/12/06 00:01:28;;;;;;;9.55;7.20;;;12.60;99.90;;;;;;4974766;28;20452;-73
2022/12/06 00:03:58;;;;;;;11.35;7.38;;;12.70;99.90;;;;;;4969962;28;20047;-72
2022/12/06 00:06:28;;;;;;;9.38;7.10;;;12.60;99.90;;;;;;4972916;28;20046;-72
2022/12/06 00:08:57;;;;;;;10.15;6.97;;;12.60;99.90;;;;;;4979205;28;20049;-72
2022/12/06 00:11:30;;;;;;;12.95;7.70;;;12.60;99.90;;;;;;4976380;28;20046;-72
2022/12/06 00:14:00;;;;;;;9.75;6.88;;;12.70;99.90;;;;;;4964679;28;20042;-72
2022/12/06 00:16:28;;;;;;;10.35;7.38;;;12.70;99.90;;;;;;4973504;28;20043;-72
2022/12/06 00:18:57;;;;;;;12.20;8.20;;;12.70;99.90;;;;;;4972616;28;21758;-73
2022/12/06 00:21:27;;;;;;;10.18;7.60;;;12.70;99.90;;;;;;4965801;28;20043;-72
2022/12/06 00:24:00;;;;;;;13.07;8.02;;;12.60;99.90;;;;;;4965362;28;20038;-72
2022/12/06 00:26:28;;;;;;;11.70;8.07;;;12.60;99.90;;;;;;4963810;28;20039;-72
2022/12/06 00:28:59;;;;;;;9.25;6.90;;;12.60;99.90;;;;;;4960572;28;20764;-72
2022/12/06 00:31:29;;;;;;;11.30;8.60;;;12.50;99.90;;;;;;4967599;28;20463;-72
2022/12/06 00:33:56;;;;;;;13.20;8.85;;;12.50;99.90;;;;;;4976418;28;20051;-72
2022/12/06 00:36:27;;;;;;;12.68;8.55;;;12.40;99.90;;;;;;4968409;28;20034;-73
2022/12/06 00:38:57;;;;;;;15.23;10.18;;;12.40;99.90;;;;;;4971451;28;20047;-72
2022/12/06 00:41:25;;;;;;;20.63;9.45;;;12.40;99.90;;;;;;4966459;28;20046;-72
2022/12/06 00:43:53;;;;;;;12.32;9.68;;;12.30;99.90;;;;;;4959849;28;20043;-72
2022/12/06 00:46:23;;;;;;;18.02;9.32;;;12.30;99.90;;;;;;4969231;28;20198;-72
2022/12/06 00:48:54;;;;;;;14.48;9.80;;;12.20;99.90;;;;;;4971298;28;20093;-71
2022/12/06 00:51:22;;;;;;;17.90;11.60;;;12.20;99.90;;;;;;4969885;28;20057;-72
2022/12/06 00:53:50;;;;;;;15.35;11.23;;;12.20;99.90;;;;;;4971794;28;20039;-72
2022/12/06 00:56:18;;;;;;;14.60;10.23;;;12.20;99.90;;;;;;4977720;28;20042;-73
2022/12/06 00:58:46;;;;;;;14.98;11.25;;;12.20;99.90;;;;;;4973651;28;20050;-72
2022/12/06 01:01:20;;;;;;;14.77;11.77;;;12.10;99.90;;;;;;4976952;28;20459;-72
2022/12/06 01:03:50;;;;;;;11.77;9.20;;;12.00;99.90;;;;;;4974013;28;20046;-73
2022/12/06 01:06:21;;;;;;;15.23;10.88;;;12.10;99.90;;;;;;4967699;28;20077;-74
2022/12/06 01:08:49;;;;;;;13.65;11.05;;;12.10;99.90;;;;;;4977389;28;20051;-73
2022/12/06 01:11:16;;;;;;;13.68;9.82;;;12.10;99.90;;;;;;4964110;28;20487;-72
2022/12/06 01:13:44;;;;;;;11.80;9.80;;;12.10;99.90;;;;;;4968911;28;20149;-73
2022/12/06 01:16:18;;;;;;;14.38;8.93;;;12.10;99.90;;;;;;4950961;28;20054;-73
2022/12/06 01:18:46;;;;;;;15.20;10.63;;;12.10;99.90;;;;;;4981162;28;20074;-73
2022/12/06 01:21:16;;;;;;;16.88;10.25;;;12.10;99.90;;;;;;4969503;28;20474;-72
2022/12/06 01:23:45;;;;;;;14.57;11.13;;;12.10;99.90;;;;;;4972124;28;20123;-73
2022/12/06 01:26:18;;;;;;;20.23;10.57;;;12.00;99.90;;;;;;4971217;28;20501;-72
2022/12/06 01:28:46;;;;;;;14.32;9.90;;;12.00;99.90;;;;;;4968804;28;20059;-74
2022/12/06 01:31:14;;;;;;;13.80;9.98;;;11.90;99.90;;;;;;4975219;28;20188;-72
2022/12/06 01:33:42;;;;;;;13.55;11.05;;;11.90;99.90;;;;;;4967961;28;20070;-72
2022/12/06 01:36:36;;;;;;;14.90;9.85;;;11.90;99.90;;;;;;4971366;28;20115;-73
2022/12/06 01:39:06;;;;;;;14.23;10.10;;;12.00;99.90;;;;;;4975482;28;20046;-74
2022/12/06 01:41:34;;;;;;;17.40;11.05;;;12.00;99.90;;;;;;4972586;28;20043;-73
2022/12/06 01:44:03;;;;;;;12.80;9.60;;;12.00;99.90;;;;;;4971761;28;20481;-74
2022/12/06 01:46:36;;;;;;;14.70;9.50;;;11.90;99.90;;;;;;4976751;28;20193;-73
2022/12/06 01:49:09;;;;;;;15.93;10.38;;;11.90;99.90;;;;;;4951439;28;20038;-73
2022/12/06 01:51:50;;;;;;;14.52;10.30;;;11.90;99.90;;;;;;4950814;28;20255;-73
2022/12/06 01:54:19;;;;;;;14.82;10.65;;;11.90;99.90;;;;;;4943225;28;20043;-74
2022/12/06 01:56:49;;;;;;;15.52;11.30;;;11.90;99.90;;;;;;4957712;28;20126;-73
2022/12/06 01:59:17;;;;;;;16.17;10.57;;;11.90;99.90;;;;;;4971580;28;20058;-74
2022/12/06 02:01:46;;;;;;;16.88;10.48;;;11.80;99.90;;;;;;4968718;28;20453;-72
2022/12/06 02:04:15;;;;;;;15.63;9.88;;;11.80;99.90;;;;;;4975007;28;20054;-73
2022/12/06 02:06:43;;;;;;;17.73;11.50;;;11.80;99.90;;;;;;4975344;28;20047;-73
2022/12/06 02:09:12;;;;;;;13.25;9.25;;;11.80;99.90;;;;;;4974424;28;20035;-72
2022/12/06 02:11:40;;;;;;;14.95;10.02;;;11.80;99.90;;;;;;4980536;28;20871;-73
2022/12/06 02:14:13;;;;;;;11.85;8.18;;;11.90;99.90;;;;;;4975235;28;20102;-73
2022/12/06 02:17:08;;;;;;;15.55;9.27;;;11.90;99.90;;;;;;4983579;28;20050;-74
2022/12/06 02:19:47;;;;;;;17.27;8.48;;;12.00;99.90;;;;;;4958517;28;20161;-73
2022/12/06 02:22:27;;;;;;;19.90;8.77;;;12.10;99.90;;;;;;4965078;28;20059;-74
2022/12/06 02:25:00;;;;;;;11.70;7.85;;;12.10;99.90;;;;;;4968355;28;20046;-74
2022/12/06 02:27:50;;;;;;;12.98;8.18;;;12.20;99.90;;;;;;4953687;28;20047;-74
2022/12/06 02:30:46;;;;;;;9.85;7.45;;;12.20;99.90;;;;;;4969161;28;20141;-73
2022/12/06 02:33:49;;;;;;;10.07;6.47;;;12.20;99.90;;;;;;4971425;28;20042;-73
2022/12/06 02:37:02;;;;;;;14.57;7.03;;;12.30;99.90;;;;;;4969817;28;20519;-73
2022/12/06 02:39:35;;;;;;;12.25;5.57;;;12.40;99.90;;;;;;4966400;28;20138;-73
2022/12/06 02:42:12;;;;;;;8.00;5.80;;;12.40;99.90;;;;;;4968553;28;20455;-73
2022/12/06 02:44:45;;;;;;;9.32;6.10;;;12.40;99.90;;;;;;4968105;28;20043;-73
2022/12/06 02:47:15;;;;;;;13.32;6.10;;;12.50;99.90;;;;;;4950798;28;20117;-73
2022/12/06 02:49:48;;;;;;;11.68;6.85;;;12.40;99.90;;;;;;4951028;28;20043;-74
2022/12/06 02:52:18;;;;;;;11.23;5.47;;;12.40;99.90;;;;;;4968478;28;20042;-73
2022/12/06 02:54:48;;;;;;;9.20;6.10;;;12.40;99.90;;;;;;4969121;28;20505;-73
2022/12/06 02:57:18;;;;;;;13.88;6.82;;;12.30;99.90;;;;;;4969333;28;20043;-73
2022/12/06 02:59:53;;;;;;;11.68;7.25;;;12.20;99.90;;;;;;4970423;28;20057;-73
2022/12/06 03:02:22;;;;;;;10.63;7.65;;;12.20;99.90;;;;;;4971587;28;20058;-73
2022/12/06 03:04:58;;;;;;;13.18;7.22;;;12.20;99.90;;;;;;4971037;28;20430;-73
2022/12/06 03:07:56;;;;;;;18.85;9.43;;;12.20;99.90;;;;;;4953380;28;20050;-73
2022/12/06 03:10:41;;;;;;;11.23;7.13;;;12.20;99.90;;;;;;4958944;28;20188;-73
2022/12/06 03:13:24;;;;;;;15.30;7.57;;;12.10;99.90;;;;;;4969526;28;20117;-73
2022/12/06 03:16:30;;;;;;;13.43;7.78;;;12.20;99.90;;;;;;4953219;28;20405;-73
2022/12/06 03:19:10;;;;;;;10.00;7.43;;;12.10;99.90;;;;;;4927831;28;20628;-73
2022/12/06 03:21:47;;;;;;;11.80;8.27;;;12.10;99.90;;;;;;4969912;28;20058;-74
2022/12/06 03:24:15;;;;;;;;;;;12.00;99.90;;;;;;4969856;28;20761;-73
2022/12/06 03:26:45;;;;;;;11.82;7.35;;;12.00;99.90;;;;;;4969008;28;19926;-74
2022/12/06 03:29:16;;;;;;;11.85;7.03;;;12.00;99.90;;;;;;4969117;28;20125;-73
2022/12/06 03:31:44;;;;;;;13.70;7.57;;;12.00;99.90;;;;;;4969039;28;20591;-74
2022/12/06 03:34:23;;;;;;;13.02;7.70;;;12.00;99.90;;;;;;4970399;28;20131;-73
2022/12/06 03:36:52;;;;;;;18.10;7.78;;;12.00;99.90;;;;;;4970635;28;20664;-74
2022/12/06 03:39:42;;;;;;;10.80;7.43;;;12.00;99.90;;;;;;4970395;28;20078;-73
2022/12/06 03:42:10;;;;;;;9.07;6.15;;;12.00;99.90;;;;;;4970892;28;20568;-73
2022/12/06 03:44:37;;;;;;;9.00;6.07;;;12.10;99.90;;;;;;4970174;28;20105;-73
2022/12/06 03:47:19;;;;;;;9.02;5.50;;;12.10;99.90;;;;;;4968453;28;20502;-73
2022/12/06 03:50:03;;;;;;;10.45;6.40;;;12.10;99.90;;;;;;4970258;28;20066;-73
2022/12/06 03:52:32;;;;;;;9.23;5.22;;;12.10;99.90;;;;;;4969122;28;20081;-74
2022/12/06 03:54:59;;;;;;;8.35;5.78;;;12.10;99.90;;;;;;4969990;28;20043;-73
2022/12/06 03:57:27;;;;;;;8.20;5.55;;;12.10;99.90;;;;;;4968635;28;20413;-73
2022/12/06 03:59:54;;;;;;;10.48;5.32;;;12.10;99.90;;;;;;4977429;28;20065;-73
2022/12/06 04:02:22;;;;;;;8.48;5.63;;;12.10;99.90;;;;;;4976629;28;20448;-73
2022/12/06 04:04:50;;;;;;;7.32;4.82;;;12.10;99.90;;;;;;4969217;28;20426;-74
2022/12/06 04:07:20;;;;;;;12.73;6.32;;;12.10;99.90;;;;;;4964605;28;20043;-74
2022/12/06 04:10:01;;;;;;;7.65;4.50;;;12.10;99.90;;;;;;4982881;28;20093;-74
2022/12/06 04:15:20;;;;;;;7.50;4.82;;;12.20;99.90;;;;;;4969589;28;20062;-74
2022/12/06 04:23:20;;;;;;;9.47;4.60;;;12.20;99.90;;;;;;4968451;28;20847;-73
2022/12/06 04:25:47;;;;;;;7.55;4.28;;;12.20;99.90;;;;;;4969051;28;20745;-73
2022/12/06 04:39:21;;;;;;;8.55;4.18;;;12.10;99.90;;;;;;4984551;28;20047;-73
2022/12/06 04:44:34;;;;;;;7.28;4.05;;;12.10;99.90;;;;;;4969999;28;20050;-73
2022/12/06 04:47:03;;;;;;;11.55;4.75;;;12.10;99.90;;;;;;4970031;28;20510;-74
2022/12/06 04:49:30;;;;;;;8.85;4.10;;;12.00;99.90;;;;;;4969906;28;20051;-73
2022/12/06 04:51:58;;;;;;;6.40;4.30;;;12.00;99.90;;;;;;4968597;28;20055;-73
2022/12/06 04:54:26;;;;;;;8.10;4.63;;;12.00;99.90;;;;;;4968994;28;20445;-74
2022/12/06 04:56:53;;;;;;;6.03;4.18;;;12.00;99.90;;;;;;4969466;28;20043;-73
2022/12/06 04:59:21;;;;;;;6.55;4.80;;;11.90;99.90;;;;;;4969232;28;20046;-73
2022/12/06 05:01:48;;;;;;;8.57;4.70;;;11.90;99.90;;;;;;4967539;28;20089;-73
2022/12/06 05:04:16;;;;;;;6.28;3.78;;;11.80;99.90;;;;;;4967181;28;20849;-73
2022/12/06 05:06:44;;;;;;;7.50;4.28;;;11.90;99.90;;;;;;4967924;28;20058;-73
2022/12/06 05:09:11;;;;;;;5.72;3.63;;;11.80;99.90;;;;;;4967964;28;20064;-74
2022/12/06 05:11:39;;;;;;;6.90;3.67;;;11.90;99.90;;;;;;4969223;28;20047;-73
2022/12/06 05:14:06;;;;;;;8.63;4.20;;;11.80;99.90;;;;;;4969131;28;20043;-73
2022/12/06 05:16:34;;;;;;;6.78;4.15;;;11.80;99.90;;;;;;4969449;28;20434;-74
2022/12/06 05:19:01;;;;;;;8.85;3.58;;;11.80;99.90;;;;;;4967914;28;20058;-73
2022/12/06 05:21:29;;;;;;;7.97;4.22;;;11.80;99.90;;;;;;4968148;28;20059;-73
2022/12/06 05:23:56;;;;;;;6.65;3.60;;;11.80;99.90;;;;;;4952193;28;20409;-73
2022/12/06 05:26:26;;;;;;;5.93;3.58;;;11.80;99.90;;;;;;4969166;28;20133;-74
2022/12/06 05:28:54;;;;;;;8.07;4.68;;;11.80;99.90;;;;;;4953388;28;20090;-73
2022/12/06 05:31:23;;;;;;;9.45;5.80;;;11.80;99.90;;;;;;4973072;28;20046;-73
2022/12/06 05:33:51;;;;;;;8.05;4.82;;;11.80;99.90;;;;;;4972733;28;20134;-73
2022/12/06 05:36:22;;;;;;;8.43;4.80;;;11.70;99.90;;;;;;4972207;28;20057;-73
2022/12/06 05:38:50;;;;;;;7.50;4.85;;;11.80;99.90;;;;;;4971111;28;20046;-73
2022/12/06 05:41:20;;;;;;;8.98;4.93;;;11.80;99.90;;;;;;4970690;28;20373;-73
2022/12/06 05:43:47;;;;;;;8.60;3.47;;;11.80;99.90;;;;;;4972432;28;20520;-73
2022/12/06 05:46:15;;;;;;;6.07;4.43;;;11.80;99.90;;;;;;4971098;28;20062;-74
2022/12/06 05:48:43;;;;;;;7.30;5.00;;;11.80;99.90;;;;;;4986890;28;20130;-74
2022/12/06 05:51:11;;;;;;;20.98;4.78;;;11.80;99.90;;;;;;4986244;28;20493;-73
2022/12/06 05:53:40;;;;;;;7.22;3.42;;;11.90;99.90;;;;;;4971186;28;20426;-73
2022/12/06 05:56:10;;;;;;;13.57;4.22;;;11.90;99.90;;;;;;4969858;28;20161;-75
2022/12/06 05:58:39;;;;;;;7.13;3.17;;;11.90;99.90;;;;;;4986705;28;20070;-74
2022/12/06 06:01:08;;;;;;;7.75;3.97;;;12.00;99.90;;;;;;4980817;28;20169;-74
2022/12/06 06:03:36;;;;;;;8.25;4.30;;;12.00;99.90;;;;;;4968143;28;20048;-74
2022/12/06 06:06:05;;;;;;;10.27;4.05;;;12.10;99.90;;;;;;4986154;28;20043;-73
2022/12/06 06:08:35;;;;;;;10.85;4.65;;;12.10;99.90;;;;;;4974344;28;20406;-73
2022/12/06 06:11:02;;;;;;;12.70;5.20;;;12.10;99.90;;;;;;4985051;28;20062;-74
2022/12/06 06:13:30;;;;;;;15.13;4.78;;;12.20;99.90;;;;;;4980804;28;20054;-73
2022/12/06 06:15:57;;;;;;;9.73;4.25;;;12.20;99.90;;;;;;4970064;28;20050;-73
2022/12/06 06:18:25;;;;;;;7.13;4.05;;;12.20;99.90;;;;;;4967229;28;20443;-74
2022/12/06 06:20:56;;;;;;;8.48;3.58;;;12.20;99.90;;;;;;4979712;28;20410;-73
2022/12/06 06:23:25;;;;;;;8.70;5.25;;;12.20;99.90;;;;;;4979397;28;20098;-73
2022/12/06 06:25:53;;;;;;;9.07;5.13;;;12.20;99.90;;;;;;4970806;28;20050;-74
2022/12/06 06:28:21;;;;;;;5.55;3.25;;;12.30;99.90;;;;;;4964657;28;20054;-73
2022/12/06 06:30:49;;;;;;;8.70;4.45;;;12.30;99.90;;;;;;4971747;28;20129;-74
2022/12/06 06:33:17;;;;;;;7.13;4.63;;;12.40;99.90;;;;;;4984459;28;20050;-74
2022/12/06 06:35:44;;;;;;;13.68;5.82;;;12.50;99.90;;;;;;4981674;28;20399;-74
2022/12/06 06:38:12;;;;;;;12.73;7.30;;;12.50;99.90;;;;;;4973850;28;20166;-74
2022/12/06 06:40:39;;;;;;;14.70;7.93;;;12.60;99.90;;;;;;4981553;28;20405;-74
2022/12/06 06:43:19;;;;;;;14.82;8.40;;;12.70;99.90;;;;;;4980953;28;20057;-74
2022/12/06 06:45:54;;;;;;;9.35;5.18;;;12.80;99.90;;;;;;4973889;28;20093;-74
2022/12/06 06:48:26;;;;;;;11.88;4.85;;;12.80;99.90;;;;;;4970420;28;20052;-73
2022/12/06 06:50:53;;;;;;;7.90;3.55;;;12.80;99.90;;;;;;4970672;28;20500;-74
2022/12/06 06:53:25;;;;;;;8.40;4.35;;;13.10;99.90;;;;;;4979157;28;20043;-73
2022/12/06 06:55:52;;;;;;;7.50;4.85;;;13.50;99.90;;;;;;4969939;28;20038;-74
2022/12/06 06:58:20;;;;;;;10.32;5.00;;;13.70;99.90;;;;;;4972956;28;20607;-74
2022/12/06 07:01:00;;;;;;;7.18;3.72;;;13.80;99.90;;;;;;4950555;28;20509;-74
2022/12/06 07:03:28;;;;;;;6.30;3.38;;;13.90;99.90;;;;;;4967270;28;20527;-74
2022/12/06 07:06:01;;;;;;;5.53;3.92;;;13.80;99.90;;;;;;4962598;28;20047;-74
2022/12/06 07:08:30;;;;;;;5.55;3.90;;;13.70;99.90;;;;;;4975644;28;20086;-74
2022/12/06 07:10:58;;;;;;;5.45;3.13;;;13.70;99.90;;;;;;4957662;28;20046;-74
2022/12/06 07:13:27;;;;;;;6.85;3.63;;;13.80;99.90;;;;;;4966869;28;20141;-74
2022/12/06 07:15:55;;;;;;;6.20;3.22;;;14.00;99.90;;;;;;4983783;28;20125;-73
2022/12/06 07:18:22;;;;;;;7.82;4.95;;;14.10;99.90;;;;;;4986319;28;20046;-73
2022/12/06 07:20:59;;;;;;;8.23;4.32;;;14.40;99.90;;;;;;4975796;28;20425;-73
2022/12/06 07:23:26;;;;;;;;;;;14.70;99.90;;;;;;4975736;28;20057;-73
2022/12/06 07:26:15;;;;;;;6.53;2.80;;;15.10;99.90;;;;;;4978770;28;19933;-73
2022/12/06 07:28:44;;;;;;;8.25;3.88;;;15.70;99.90;;;;;;4980080;28;20043;-73
2022/12/06 07:31:20;;;;;;;9.63;3.80;;;16.20;99.90;;;;;;4979143;28;20129;-73
2022/12/06 07:33:52;;;;;;;7.17;3.40;;;16.50;99.90;;;;;;4973475;28;20436;-73
2022/12/06 07:36:21;;;;;;;7.72;4.35;;;16.50;99.90;;;;;;4981537;28;20321;-74
2022/12/06 07:38:51;;;;;;;5.10;2.85;;;16.30;99.90;;;;;;4974850;28;20059;-73
2022/12/06 07:47:00;;;;;;;7.90;4.53;;;15.30;99.90;;;;;;4977363;28;20047;-73
2022/12/06 07:49:29;;;;;;;10.63;4.20;;;15.10;99.90;;;;;;4978024;28;20046;-72
2022/12/06 07:51:56;;;;;;;7.28;4.55;;;15.00;99.90;;;;;;4964468;28;20048;-74
2022/12/06 07:54:25;;;;;;;6.72;3.97;;;14.80;99.90;;;;;;4968994;28;20166;-74
2022/12/06 07:56:55;;;;;;;7.97;3.90;;;14.80;99.90;;;;;;4969010;28;20145;-74
2022/12/06 07:59:23;;;;;;;9.07;4.97;;;14.90;99.90;;;;;;4969641;28;20058;-75
2022/12/06 08:01:52;;;;;;;11.82;5.55;;;15.00;99.90;;;;;;4968229;28;20058;-74
2022/12/06 08:04:20;;;;;;;8.48;5.95;;;15.10;99.90;;;;;;4951546;28;20039;-74
2022/12/06 08:06:47;;;;;;;8.57;5.15;;;15.20;99.90;;;;;;4951069;28;20039;-73
2022/12/06 08:09:15;;;;;;;9.35;5.95;;;15.30;99.90;;;;;;4949497;29;20717;-74
2022/12/06 08:11:43;;;;;;;13.65;5.38;;;15.50;99.90;;;;;;4949292;28;20051;-75
2022/12/06 08:14:13;;;;;;;8.35;4.32;;;15.50;99.90;;;;;;4954162;28;20051;-72
2022/12/06 08:16:41;;;;;;;9.63;5.40;;;15.60;99.90;;;;;;4967925;28;20138;-72
2022/12/06 08:19:08;;;;;;;11.25;5.00;;;15.50;99.90;;;;;;4967904;28;20799;-72
2022/12/06 08:21:36;;;;;;;9.77;4.63;;;15.60;99.90;;;;;;4968511;28;20443;-72
2022/12/06 08:24:04;;;;;;;9.77;4.85;;;15.90;99.90;;;;;;4967910;28;20073;-73
2022/12/06 08:26:31;;;;;;;9.77;4.72;;;15.90;99.90;;;;;;4967643;28;20134;-74
2022/12/06 08:29:00;;;;;;;6.20;4.70;;;16.00;99.90;;;;;;4969444;28;20047;-72
2022/12/06 08:31:29;;;;;;;7.72;5.13;;;16.30;99.90;;;;;;4968481;28;20114;-71
2022/12/06 08:33:57;;;;;;;7.32;4.40;;;16.50;99.90;;;;;;4968961;28;20046;-72
2022/12/06 08:36:26;;;;;;;12.63;5.47;;;16.50;99.90;;;;;;4968054;28;20042;-73
2022/12/06 08:38:54;;;;;;;11.50;4.28;;;16.70;99.90;;;;;;4967247;28;20051;-72
2022/12/06 08:44:12;;;;;;;10.68;4.47;;;16.50;99.90;;;;;;4969180;28;20065;-73
2022/12/06 08:46:40;;;;;;;8.10;3.80;;;16.40;99.90;;;;;;4969552;28;20078;-72
2022/12/06 08:49:08;;;;;;;7.50;5.13;;;16.30;99.90;;;;;;4983955;28;20078;-72
2022/12/06 08:51:36;;;;;;;9.32;4.78;;;16.20;99.90;;;;;;4967843;28;20047;-74
2022/12/06 08:54:05;;;;;;;10.77;4.97;;;16.20;99.90;;;;;;4968008;28;20042;-71
2022/12/06 08:56:33;;;;;;;6.65;4.70;;;16.30;99.90;;;;;;4968314;28;20047;-72
2022/12/06 08:59:00;;;;;;;8.77;5.72;;;16.40;99.90;;;;;;4968197;28;20074;-73
2022/12/06 09:01:31;;;;;;;11.43;5.68;;;16.50;99.90;;;;;;4967615;28;20065;-73
2022/12/06 09:04:03;;;;;;;6.90;4.38;;;16.80;99.90;;;;;;4986452;28;20463;-72
2022/12/06 09:06:30;;;;;;;23.15;5.55;;;17.00;99.90;;;;;;4971471;28;20047;-73
2022/12/06 09:08:58;;;;;;;10.88;4.95;;;17.20;99.90;;;;;;4972246;28;20114;-71
2022/12/06 09:11:26;;;;;;;10.10;4.68;;;17.40;99.90;;;;;;4971561;28;20496;-71
2022/12/06 09:13:53;;;;;;;7.25;4.10;;;17.70;99.90;;;;;;4987916;28;20169;-72
2022/12/06 09:16:22;;;;;;;7.78;4.10;;;17.80;99.90;;;;;;4971730;28;20082;-72
2022/12/06 09:18:50;;;;;;;12.25;3.65;;;17.80;99.90;;;;;;4971405;28;20050;-72
2022/12/06 09:21:24;;;;;;;7.75;4.40;;;17.80;99.90;;;;;;4972493;28;20054;-71
2022/12/06 09:23:55;;;;;;;5.78;3.53;;;17.70;99.90;;;;;;4972964;28;20165;-72
2022/12/06 09:26:24;;;;;;;15.23;6.07;;;17.40;99.90;;;;;;4972387;28;20078;-72
2022/12/06 09:28:54;;;;;;;14.18;6.00;;;17.40;99.90;;;;;;4972613;28;20107;-72
2022/12/06 09:31:22;;;;;;;7.47;4.05;;;17.40;99.90;;;;;;4970152;28;20077;-72
2022/12/06 09:33:51;;;;;;;7.97;3.72;;;17.40;99.90;;;;;;4971875;28;20167;-73
2022/12/06 09:36:27;;;;;;;9.27;3.30;;;17.30;99.90;;;;;;4967537;28;20054;-71
2022/12/06 09:39:24;;;;;;;6.43;3.25;;;17.20;99.90;;;;;;4965950;28;20047;-73
2022/12/06 09:42:09;;;;;;;14.05;4.60;;;17.30;99.90;;;;;;4970704;28;20062;-72
2022/12/06 09:45:13;;;;;;;7.72;3.60;;;17.40;99.90;;;;;;4972123;28;20458;-71
2022/12/06 09:48:06;;;;;;;7.97;4.43;;;17.30;99.90;;;;;;4972299;28;20053;-72
2022/12/06 09:50:53;;;;;;;5.25;3.15;;;17.10;99.90;;;;;;4971048;28;20062;-72
2022/12/06 09:53:47;;;;;;;7.07;3.88;;;17.10;99.90;;;;;;4986553;28;20418;-72
2022/12/06 09:56:45;;;;;;;6.53;3.25;;;17.00;99.90;;;;;;4970810;28;20346;-73
2022/12/06 09:59:24;;;;;;;8.77;4.07;;;17.00;99.90;;;;;;4971594;28;20046;-71
2022/12/06 10:02:28;;;;;;;7.78;3.75;;;17.00;99.90;;;;;;4970288;28;20059;-71
2022/12/06 10:05:13;;;;;;;12.27;3.22;;;16.90;99.90;;;;;;4972062;28;20066;-73
2022/12/06 10:08:01;;;;;;;8.20;3.28;;;16.70;99.90;;;;;;4970209;28;20472;-71
2022/12/06 10:10:48;;;;;;;9.30;4.07;;;16.50;99.90;;;;;;4969898;28;20050;-72
2022/12/06 10:13:43;;;;;;;6.78;3.67;;;16.50;99.90;;;;;;4970029;28;20046;-72
2022/12/06 10:16:54;;;;;;;7.10;3.42;;;16.40;99.90;;;;;;4969557;28;20049;-74
2022/12/06 10:19:27;;;;;;;10.15;3.42;;;16.40;99.90;;;;;;4958151;28;20065;-72
2022/12/06 10:22:01;;;;;;;10.65;2.80;;;16.30;99.90;;;;;;4970245;28;20050;-73
2022/12/06 10:24:50;;;;;;;5.55;2.80;;;16.40;99.90;;;;;;4971511;28;20042;-72
2022/12/06 10:27:48;;;;;;;14.07;4.57;;;16.30;99.90;;;;;;4970163;28;20081;-73
2022/12/06 10:30:15;;;;;;;;;;;16.30;99.90;;;;;;4954633;28;20524;-72
2022/12/06 10:32:43;;;;;;;10.10;3.42;;;16.40;99.90;;;;;;4971129;28;19928;-72
2022/12/06 10:35:40;;;;;;;7.53;3.95;;;16.40;99.90;;;;;;4969678;28;20082;-73
2022/12/06 10:38:20;;;;;;;7.65;2.95;;;16.50;99.90;;;;;;4965027;28;20050;-72
2022/12/06 10:41:18;;;;;;;11.18;4.15;;;16.60;99.90;;;;;;4953725;28;20397;-72
2022/12/06 10:44:24;;;;;;;14.48;5.05;;;16.60;99.90;;;;;;4959042;28;20049;-74
2022/12/06 10:47:15;;;;;;;10.13;4.63;;;16.70;99.90;;;;;;4957405;28;20051;-73
2022/12/06 10:49:49;;;;;;;7.40;3.42;;;16.80;99.90;;;;;;4962429;28;20042;-71
2022/12/06 10:52:42;;;;;;;8.00;3.50;;;16.80;99.90;;;;;;4960340;28;20043;-74
2022/12/06 10:55:10;;;;;;;12.35;7.30;;;16.70;99.90;;;;;;4955319;28;20089;-73
2022/12/06 10:58:16;;;;;;;9.65;4.72;;;16.70;99.90;;;;;;4958281;28;20513;-73
2022/12/06 11:00:53;;;;;;;8.70;4.00;;;16.70;99.90;;;;;;4959572;28;20132;-74
2022/12/06 11:03:29;;;;;;;6.35;3.70;;;16.60;99.90;;;;;;4966118;28;20050;-72
2022/12/06 11:06:37;;;;;;;8.73;3.78;;;16.70;99.90;;;;;;4940843;28;20452;-73
2022/12/06 11:09:25;;;;;;;6.90;3.92;;;16.70;99.90;;;;;;4966870;28;20076;-73
2022/12/06 11:11:52;;;;;;;11.98;4.20;;;16.80;99.90;;;;;;4965864;28;20046;-74
2022/12/06 11:14:37;;;;;;;8.27;4.13;;;16.80;99.90;;;;;;4961094;28;20366;-73
2022/12/06 11:17:23;;;;;;;11.95;3.85;;;16.90;99.90;;;;;;4973357;28;20093;-72
2022/12/06 11:19:59;;;;;;;7.57;3.30;;;16.90;99.90;;;;;;4967657;28;20159;-72
2022/12/06 11:22:52;;;;;;;9.95;3.30;;;16.90;99.90;;;;;;4966445;28;20097;-72
2022/12/06 11:25:29;;;;;;;7.57;4.53;;;16.90;99.90;;;;;;4983879;28;20035;-73
2022/12/06 11:28:22;;;;;;;12.88;3.10;;;17.00;99.90;;;;;;4968882;28;20073;-72
2022/12/06 11:30:52;;;;;;;8.18;2.85;;;17.10;99.90;;;;;;4964236;28;20097;-75
2022/12/06 11:33:31;;;;;;;8.15;2.85;;;17.10;99.90;;;;;;4964829;28;20172;-75
2022/12/06 11:36:04;;;;;;;6.72;2.97;;;17.10;99.90;;;;;;4932523;28;20146;-74
2022/12/06 11:38:36;;;;;;;10.23;3.58;;;17.10;99.90;;;;;;4972299;28;20054;-75
2022/12/06 11:41:07;;;;;;;9.95;3.97;;;17.10;99.90;;;;;;4963141;28;20054;-73
2022/12/06 11:43:35;;;;;;;7.68;3.25;;;17.00;99.90;;;;;;4957083;28;20096;-72
2022/12/06 11:46:05;;;;;;;7.15;3.13;;;17.00;99.90;;;;;;4975989;28;20043;-76
2022/12/06 11:48:35;;;;;;;14.32;3.33;;;17.00;99.90;;;;;;4968671;28;20570;-72
2022/12/06 11:51:14;;;;;;;8.07;3.10;;;17.00;99.90;;;;;;4974126;28;20038;-74
2022/12/06 11:53:53;;;;;;;5.07;3.15;;;17.00;99.90;;;;;;4955248;28;20069;-73
2022/12/06 11:56:25;;;;;;;11.98;3.65;;;17.10;99.90;;;;;;4944271;28;20708;-71
2022/12/06 11:59:07;;;;;;;6.50;2.85;;;17.10;99.90;;;;;;4839214;28;20121;-73
2022/12/06 12:01:49;;;;;;;5.80;3.40;;;17.20;99.90;;;;;;4944486;28;20422;-73
2022/12/06 12:04:36;;;;;;;8.93;3.38;;;17.40;99.90;;;;;;4963263;28;20039;-74
2022/12/06 12:07:10;;;;;;;5.68;3.25;;;17.50;99.90;;;;;;4941355;28;20053;-80
2022/12/06 12:09:55;;;;;;;9.40;3.03;;;17.70;99.90;;;;;;4936462;28;20055;-74
2022/12/06 12:13:43;;;;;;;7.57;3.28;;;17.70;99.90;;;;;;4967071;28;20458;-72
2022/12/06 12:15:18;;;;;;;7.50;2.83;;;17.60;99.90;;;;;;4969914;28;20047;-74
2022/12/06 12:17:50;;;;;;;7.55;3.60;;;17.50;99.90;;;;;;4968444;28;20043;-73
2022/12/06 12:20:23;;;;;;;11.55;3.53;;;17.40;99.90;;;;;;4946327;28;20235;-73
2022/12/06 12:23:01;;;;;;;6.78;3.45;;;17.30;99.90;;;;;;4967269;28;20109;-76
2022/12/06 12:25:32;;;;;;;5.60;3.22;;;17.20;99.90;;;;;;4968443;28;20070;-73
2022/12/06 12:28:02;;;;;;;6.38;2.88;;;17.20;99.90;;;;;;4968840;28;20039;-75
2022/12/06 12:30:38;;;;;;;10.13;3.53;;;17.20;99.90;;;;;;4984817;28;20046;-74
2022/12/06 12:33:06;;;;;;;11.73;4.22;;;17.20;99.90;;;;;;4950654;29;20494;-72
2022/12/06 12:36:03;;;;;;;6.75;3.28;;;17.30;99.90;;;;;;4933663;29;20449;-74
2022/12/06 12:38:39;;;;;;;7.47;3.03;;;17.40;99.90;;;;;;4938189;28;20067;-72
2022/12/06 12:41:32;;;;;;;9.20;3.38;;;17.50;99.90;;;;;;4937070;29;20095;-72
2022/12/06 12:44:22;;;;;;;9.40;3.50;;;17.50;99.90;;;;;;4950119;28;20141;-72
2022/12/06 12:47:18;;;;;;;5.82;2.88;;;17.40;99.90;;;;;;4955133;28;20078;-72
2022/12/06 12:50:12;;;;;;;7.03;3.15;;;17.40;99.90;;;;;;4936778;29;20047;-73
2022/12/06 12:52:41;;;;;;;7.75;3.40;;;17.40;99.90;;;;;;4964751;28;20473;-73
2022/12/06 12:55:12;;;;;;;8.68;3.47;;;17.40;99.90;;;;;;4971515;28;20057;-75
2022/12/06 12:57:50;;;;;;;11.75;4.88;;;17.40;99.90;;;;;;4971859;28;20121;-72
2022/12/06 13:00:22;;;;;;;11.95;3.95;;;17.20;99.90;;;;;;4972923;28;20141;-73
2022/12/06 13:03:01;;;;;;;11.77;3.03;;;17.10;99.90;;;;;;4971683;28;20035;-72
2022/12/06 13:05:33;;;;;;;6.28;2.47;;;17.10;99.90;;;;;;4955414;28;20377;-72
2022/12/06 13:08:09;;;;;;;7.30;2.53;;;17.00;99.90;;;;;;4971023;28;20054;-74
2022/12/06 13:10:38;;;;;;;7.53;3.83;;;16.90;99.90;;;;;;4971509;28;20050;-72
2022/12/06 13:13:18;;;;;;;10.20;2.75;;;17.00;99.90;;;;;;4971163;28;20066;-72
2022/12/06 13:15:49;;;;;;;8.30;2.40;;;17.00;99.90;;;;;;4971549;28;20050;-72
2022/12/06 13:18:37;;;;;;;5.22;3.05;;;16.90;99.90;;;;;;4955775;28;20109;-73
2022/12/06 13:21:24;;;;;;;9.98;3.08;;;16.90;99.90;;;;;;4955417;28;20437;-72
2022/12/06 13:23:56;;;;;;;8.18;3.42;;;16.80;99.90;;;;;;4971003;28;20062;-73
2022/12/06 13:26:28;;;;;;;5.97;2.95;;;16.80;99.90;;;;;;4972095;28;20050;-72
2022/12/06 13:29:02;;;;;;;7.97;2.78;;;16.90;99.90;;;;;;4971784;28;20082;-72
2022/12/06 13:31:38;;;;;;;8.10;2.88;;;16.90;99.90;;;;;;4972513;28;20050;-72
2022/12/06 13:34:23;;;;;;;8.43;3.00;;;16.90;99.90;;;;;;4972586;28;20415;-72
2022/12/06 13:36:51;;;;;;;8.80;3.38;;;16.80;99.90;;;;;;4971369;28;20047;-74
2022/12/06 13:39:48;;;;;;;6.85;3.28;;;16.90;99.90;;;;;;4955346;28;20472;-73
2022/12/06 13:42:44;;;;;;;8.38;3.20;;;16.90;99.90;;;;;;4970081;28;20055;-73
2022/12/06 13:45:39;;;;;;;5.25;2.92;;;16.90;99.90;;;;;;4955068;28;20125;-75
2022/12/06 13:48:32;;;;;;;6.47;3.85;;;16.80;99.90;;;;;;4972281;28;20454;-72
2022/12/06 13:51:31;;;;;;;19.25;9.52;;;16.70;99.90;;;;;;4953988;28;20482;-73